sensor_id;sensor_type;location;lat;lon;timestamp;pressure;altitude;pressure_sealevel;temperature;humidity
84760;BME280;74983;51.084;11.086;2024-03-02T00:02:06;98866.38;;;4.95;92.19
84760;BME280;74983;51.084;11.086;2024-03-02T00:04:32;98870.63;;;4.96;91.74
84760;BME280;74983;51.084;11.086;2024-03-02T00:06:57;98864.94;;;5.04;91.94
84760;BME280;74983;51.084;11.086;2024-03-02T00:09:22;98864.09;;;4.78;88.95
84760;BME280;74983;51.084;11.086;2024-03-02T00:11:48;98857.75;;;4.44;90.15
84760;BME280;74983;51.084;11.086;2024-03-02T00:14:13;98857.34;;;4.24;90.58
84760;BME280;74983;51.084;11.086;2024-03-02T00:16:38;98859.50;;;4.17;90.69
84760;BME280;74983;51.084;11.086;2024-03-02T00:19:05;98858.13;;;4.12;91.33
84760;BME280;74983;51.084;11.086;2024-03-02T00:21:31;98864.75;;;4.16;91.53
84760;BME280;74983;51.084;11.086;2024-03-02T00:23:57;98857.13;;;4.14;91.39
84760;BME280;74983;51.084;11.086;2024-03-02T00:26:22;98857.97;;;4.15;91.82
84760;BME280;74983;51.084;11.086;2024-03-02T00:28:47;98857.56;;;4.21;91.51
84760;BME280;74983;51.084;11.086;2024-03-02T00:31:15;98863.44;;;4.23;91.36
84760;BME280;74983;51.084;11.086;2024-03-02T00:33:42;98865.09;;;4.24;91.75
84760;BME280;74983;51.084;11.086;2024-03-02T00:36:09;98863.53;;;4.21;91.19
84760;BME280;74983;51.084;11.086;2024-03-02T00:38:36;98863.66;;;4.20;90.94
84760;BME280;74983;51.084;11.086;2024-03-02T00:41:07;98859.59;;;4.16;90.58
84760;BME280;74983;51.084;11.086;2024-03-02T00:43:45;98856.94;;;4.17;90.83
84760;BME280;74983;51.084;11.086;2024-03-02T00:46:13;98862.91;;;4.18;91.35
84760;BME280;74983;51.084;11.086;2024-03-02T00:48:40;98857.75;;;4.18;91.25
84760;BME280;74983;51.084;11.086;2024-03-02T00:51:10;98852.81;;;4.15;91.08
84760;BME280;74983;51.084;11.086;2024-03-02T00:53:36;98854.34;;;4.17;90.27
84760;BME280;74983;51.084;11.086;2024-03-02T00:56:02;98857.97;;;4.15;91.01
84760;BME280;74983;51.084;11.086;2024-03-02T00:58:27;98863.59;;;4.07;90.93
84760;BME280;74983;51.084;11.086;2024-03-02T01:00:53;98855.44;;;4.01;90.33
84760;BME280;74983;51.084;11.086;2024-03-02T01:03:18;98865.81;;;3.99;91.03
84760;BME280;74983;51.084;11.086;2024-03-02T01:05:44;98862.22;;;4.02;90.52
84760;BME280;74983;51.084;11.086;2024-03-02T01:08:10;98861.00;;;4.07;90.25
84760;BME280;74983;51.084;11.086;2024-03-02T01:10:35;98863.59;;;4.07;90.56
84760;BME280;74983;51.084;11.086;2024-03-02T01:13:01;98868.84;;;4.06;91.83
84760;BME280;74983;51.084;11.086;2024-03-02T01:15:26;98863.16;;;4.01;91.87
84760;BME280;74983;51.084;11.086;2024-03-02T01:17:51;98861.59;;;3.98;92.10
84760;BME280;74983;51.084;11.086;2024-03-02T01:20:16;98859.75;;;4.00;92.44
84760;BME280;74983;51.084;11.086;2024-03-02T01:22:42;98852.44;;;4.07;91.22
84760;BME280;74983;51.084;11.086;2024-03-02T01:25:08;98861.53;;;4.12;90.89
84760;BME280;74983;51.084;11.086;2024-03-02T01:27:33;98858.97;;;4.12;91.60
84760;BME280;74983;51.084;11.086;2024-03-02T01:29:59;98859.44;;;4.05;91.60
84760;BME280;74983;51.084;11.086;2024-03-02T01:32:25;98861.22;;;4.04;91.44
84760;BME280;74983;51.084;11.086;2024-03-02T01:34:50;98866.06;;;4.09;90.93
84760;BME280;74983;51.084;11.086;2024-03-02T01:37:15;98863.13;;;4.15;91.18
84760;BME280;74983;51.084;11.086;2024-03-02T01:39:40;98863.75;;;4.18;91.29
84760;BME280;74983;51.084;11.086;2024-03-02T01:42:06;98868.69;;;4.21;91.46
84760;BME280;74983;51.084;11.086;2024-03-02T01:44:31;98867.66;;;4.24;91.15
84760;BME280;74983;51.084;11.086;2024-03-02T01:46:56;98865.09;;;4.24;91.10
84760;BME280;74983;51.084;11.086;2024-03-02T01:49:21;98869.31;;;4.25;91.93
84760;BME280;74983;51.084;11.086;2024-03-02T01:51:47;98868.91;;;4.31;90.82
84760;BME280;74983;51.084;11.086;2024-03-02T01:54:12;98875.50;;;4.22;90.62
84760;BME280;74983;51.084;11.086;2024-03-02T01:56:38;98880.13;;;4.17;91.13
84760;BME280;74983;51.084;11.086;2024-03-02T01:59:03;98871.53;;;4.17;91.22
84760;BME280;74983;51.084;11.086;2024-03-02T02:01:28;98872.31;;;4.05;91.87
84760;BME280;74983;51.084;11.086;2024-03-02T02:03:53;98879.16;;;4.06;91.70
84760;BME280;74983;51.084;11.086;2024-03-02T02:06:19;98870.28;;;4.10;91.88
84760;BME280;74983;51.084;11.086;2024-03-02T02:08:44;98870.34;;;4.22;91.67
84760;BME280;74983;51.084;11.086;2024-03-02T02:11:10;98869.31;;;4.25;92.00
84760;BME280;74983;51.084;11.086;2024-03-02T02:13:35;98876.31;;;4.23;92.16
84760;BME280;74983;51.084;11.086;2024-03-02T02:16:07;98872.00;;;4.23;92.39
84760;BME280;74983;51.084;11.086;2024-03-02T02:18:33;98872.63;;;4.27;92.82
84760;BME280;74983;51.084;11.086;2024-03-02T02:20:58;98873.50;;;4.40;92.26
84760;BME280;74983;51.084;11.086;2024-03-02T02:23:23;98876.50;;;4.46;92.63
84760;BME280;74983;51.084;11.086;2024-03-02T02:25:49;98866.19;;;4.46;92.61
84760;BME280;74983;51.084;11.086;2024-03-02T02:28:14;98867.75;;;4.49;92.90
84760;BME280;74983;51.084;11.086;2024-03-02T02:30:39;98865.69;;;4.54;92.83
84760;BME280;74983;51.084;11.086;2024-03-02T02:33:04;98867.16;;;4.58;93.11
84760;BME280;74983;51.084;11.086;2024-03-02T02:35:30;98866.47;;;4.69;92.43
84760;BME280;74983;51.084;11.086;2024-03-02T02:41:17;98870.28;;;4.88;91.28
84760;BME280;74983;51.084;11.086;2024-03-02T02:43:42;98865.03;;;4.90;91.81
84760;BME280;74983;51.084;11.086;2024-03-02T02:46:08;98864.84;;;4.93;92.56
84760;BME280;74983;51.084;11.086;2024-03-02T02:48:33;98865.13;;;5.01;92.47
84760;BME280;74983;51.084;11.086;2024-03-02T02:50:58;98864.13;;;5.03;92.63
84760;BME280;74983;51.084;11.086;2024-03-02T02:53:24;98857.00;;;5.07;93.17
84760;BME280;74983;51.084;11.086;2024-03-02T02:55:49;98862.56;;;5.13;92.98
84760;BME280;74983;51.084;11.086;2024-03-02T02:58:14;98865.03;;;5.15;92.84
84760;BME280;74983;51.084;11.086;2024-03-02T03:00:40;98866.59;;;5.17;93.77
84760;BME280;74983;51.084;11.086;2024-03-02T03:03:05;98858.53;;;5.22;93.04
84760;BME280;74983;51.084;11.086;2024-03-02T03:05:30;98860.00;;;5.26;93.21
84760;BME280;74983;51.084;11.086;2024-03-02T03:07:55;98864.31;;;5.25;93.45
84760;BME280;74983;51.084;11.086;2024-03-02T03:10:21;98864.09;;;5.28;93.64
84760;BME280;74983;51.084;11.086;2024-03-02T03:12:48;98866.69;;;5.28;93.39
84760;BME280;74983;51.084;11.086;2024-03-02T03:15:14;98862.78;;;5.23;93.93
84760;BME280;74983;51.084;11.086;2024-03-02T03:17:41;98850.00;;;5.09;93.66
84760;BME280;74983;51.084;11.086;2024-03-02T03:20:06;98854.09;;;5.24;93.85
84760;BME280;74983;51.084;11.086;2024-03-02T03:22:38;98860.59;;;5.17;93.45
84760;BME280;74983;51.084;11.086;2024-03-02T03:25:03;98856.78;;;5.10;93.88
84760;BME280;74983;51.084;11.086;2024-03-02T03:27:29;98857.72;;;5.09;94.36
84760;BME280;74983;51.084;11.086;2024-03-02T03:29:55;98860.38;;;5.20;94.51
84760;BME280;74983;51.084;11.086;2024-03-02T03:32:20;98858.66;;;5.20;94.07
84760;BME280;74983;51.084;11.086;2024-03-02T03:34:45;98853.69;;;5.17;94.62
84760;BME280;74983;51.084;11.086;2024-03-02T03:37:11;98851.75;;;5.21;94.60
84760;BME280;74983;51.084;11.086;2024-03-02T03:39:36;98855.13;;;5.21;94.23
84760;BME280;74983;51.084;11.086;2024-03-02T03:42:01;98860.91;;;5.25;94.46
84760;BME280;74983;51.084;11.086;2024-03-02T03:44:27;98858.31;;;5.25;94.16
84760;BME280;74983;51.084;11.086;2024-03-02T03:46:52;98853.09;;;5.26;94.18
84760;BME280;74983;51.084;11.086;2024-03-02T03:49:17;98862.25;;;5.18;94.32
84760;BME280;74983;51.084;11.086;2024-03-02T03:51:43;98856.50;;;5.14;94.61
84760;BME280;74983;51.084;11.086;2024-03-02T03:54:08;98855.94;;;5.09;94.98
84760;BME280;74983;51.084;11.086;2024-03-02T03:56:33;98853.19;;;5.12;94.98
84760;BME280;74983;51.084;11.086;2024-03-02T03:58:58;98852.66;;;5.20;95.21
84760;BME280;74983;51.084;11.086;2024-03-02T04:01:25;98852.75;;;5.18;95.27
84760;BME280;74983;51.084;11.086;2024-03-02T04:03:50;98845.84;;;5.31;94.91
84760;BME280;74983;51.084;11.086;2024-03-02T04:06:15;98843.38;;;5.30;95.47
84760;BME280;74983;51.084;11.086;2024-03-02T04:08:42;98852.34;;;5.37;96.41
84760;BME280;74983;51.084;11.086;2024-03-02T04:11:08;98846.13;;;5.52;96.50
84760;BME280;74983;51.084;11.086;2024-03-02T04:13:33;98836.91;;;5.60;96.31
84760;BME280;74983;51.084;11.086;2024-03-02T04:15:58;98838.03;;;5.69;96.38
84760;BME280;74983;51.084;11.086;2024-03-02T04:18:24;98841.31;;;5.71;96.22
84760;BME280;74983;51.084;11.086;2024-03-02T04:20:49;98838.97;;;5.68;95.71
84760;BME280;74983;51.084;11.086;2024-03-02T04:23:14;98836.53;;;5.78;95.71
84760;BME280;74983;51.084;11.086;2024-03-02T04:25:39;98836.03;;;5.85;96.52
84760;BME280;74983;51.084;11.086;2024-03-02T04:28:05;98839.19;;;6.01;95.69
84760;BME280;74983;51.084;11.086;2024-03-02T04:30:30;98834.66;;;6.16;95.84
84760;BME280;74983;51.084;11.086;2024-03-02T04:32:55;98823.56;;;6.26;94.79
84760;BME280;74983;51.084;11.086;2024-03-02T04:35:20;98829.22;;;6.31;95.20
84760;BME280;74983;51.084;11.086;2024-03-02T04:37:46;98837.81;;;6.32;94.40
84760;BME280;74983;51.084;11.086;2024-03-02T04:40:11;98829.34;;;6.30;94.55
84760;BME280;74983;51.084;11.086;2024-03-02T04:42:37;98834.31;;;6.33;94.34
84760;BME280;74983;51.084;11.086;2024-03-02T04:45:02;98845.06;;;6.27;93.99
84760;BME280;74983;51.084;11.086;2024-03-02T04:47:28;98836.38;;;6.28;94.62
84760;BME280;74983;51.084;11.086;2024-03-02T04:49:53;98836.59;;;6.25;95.13
84760;BME280;74983;51.084;11.086;2024-03-02T04:52:18;98840.13;;;6.24;94.16
84760;BME280;74983;51.084;11.086;2024-03-02T04:54:44;98845.06;;;6.27;94.91
84760;BME280;74983;51.084;11.086;2024-03-02T04:57:31;98832.63;;;6.32;94.38
84760;BME280;74983;51.084;11.086;2024-03-02T04:59:57;98844.97;;;6.28;94.58
84760;BME280;74983;51.084;11.086;2024-03-02T05:02:22;98842.72;;;6.24;95.29
84760;BME280;74983;51.084;11.086;2024-03-02T05:04:47;98846.03;;;6.26;94.48
84760;BME280;74983;51.084;11.086;2024-03-02T05:07:14;98859.56;;;6.29;95.13
84760;BME280;74983;51.084;11.086;2024-03-02T05:09:39;98853.31;;;6.32;94.30
84760;BME280;74983;51.084;11.086;2024-03-02T05:12:05;98856.63;;;6.34;94.44
84760;BME280;74983;51.084;11.086;2024-03-02T05:15:12;98846.16;;;6.35;94.59
84760;BME280;74983;51.084;11.086;2024-03-02T05:17:39;98848.75;;;6.35;94.32
84760;BME280;74983;51.084;11.086;2024-03-02T05:20:05;98853.09;;;6.35;94.47
84760;BME280;74983;51.084;11.086;2024-03-02T05:22:30;98858.16;;;6.36;94.43
84760;BME280;74983;51.084;11.086;2024-03-02T05:24:56;98849.47;;;6.37;94.30
84760;BME280;74983;51.084;11.086;2024-03-02T05:27:21;98857.84;;;6.41;94.42
84760;BME280;74983;51.084;11.086;2024-03-02T05:29:46;98857.00;;;6.40;94.15
84760;BME280;74983;51.084;11.086;2024-03-02T05:32:12;98855.00;;;6.44;93.96
84760;BME280;74983;51.084;11.086;2024-03-02T05:34:37;98863.00;;;6.41;93.43
84760;BME280;74983;51.084;11.086;2024-03-02T05:37:02;98848.75;;;6.35;94.05
84760;BME280;74983;51.084;11.086;2024-03-02T05:39:28;98848.53;;;6.38;94.09
84760;BME280;74983;51.084;11.086;2024-03-02T05:41:53;98852.88;;;6.38;94.48
84760;BME280;74983;51.084;11.086;2024-03-02T05:44:18;98849.13;;;6.42;93.99
84760;BME280;74983;51.084;11.086;2024-03-02T05:46:44;98845.63;;;6.43;93.78
84760;BME280;74983;51.084;11.086;2024-03-02T05:49:10;98850.56;;;6.46;93.14
84760;BME280;74983;51.084;11.086;2024-03-02T05:51:35;98855.72;;;6.46;93.76
84760;BME280;74983;51.084;11.086;2024-03-02T05:54:00;98859.25;;;6.45;93.75
84760;BME280;74983;51.084;11.086;2024-03-02T05:56:26;98856.69;;;6.45;93.38
84760;BME280;74983;51.084;11.086;2024-03-02T05:58:51;98861.94;;;6.43;93.28
84760;BME280;74983;51.084;11.086;2024-03-02T06:01:32;98861.94;;;6.43;93.25
84760;BME280;74983;51.084;11.086;2024-03-02T06:03:57;98865.84;;;6.49;93.27
84760;BME280;74983;51.084;11.086;2024-03-02T06:06:24;98859.03;;;6.48;93.70
84760;BME280;74983;51.084;11.086;2024-03-02T06:08:49;98865.13;;;6.47;92.91
84760;BME280;74983;51.084;11.086;2024-03-02T06:11:15;98860.78;;;6.47;93.51
84760;BME280;74983;51.084;11.086;2024-03-02T06:13:40;98870.41;;;6.45;93.06
84760;BME280;74983;51.084;11.086;2024-03-02T06:16:06;98869.63;;;6.45;93.06
84760;BME280;74983;51.084;11.086;2024-03-02T06:18:31;98872.63;;;6.39;93.34
84760;BME280;74983;51.084;11.086;2024-03-02T06:20:56;98869.66;;;6.32;93.20
84760;BME280;74983;51.084;11.086;2024-03-02T06:23:22;98864.31;;;6.23;93.77
84760;BME280;74983;51.084;11.086;2024-03-02T06:25:47;98868.78;;;6.21;94.15
84760;BME280;74983;51.084;11.086;2024-03-02T06:28:12;98874.50;;;6.13;94.16
84760;BME280;74983;51.084;11.086;2024-03-02T06:30:40;98870.38;;;6.11;94.62
84760;BME280;74983;51.084;11.086;2024-03-02T06:33:06;98880.69;;;6.11;94.73
84760;BME280;74983;51.084;11.086;2024-03-02T06:35:31;98885.03;;;6.10;94.52
84760;BME280;74983;51.084;11.086;2024-03-02T06:37:56;98891.75;;;6.13;94.75
84760;BME280;74983;51.084;11.086;2024-03-02T06:40:21;98890.63;;;6.17;94.53
84760;BME280;74983;51.084;11.086;2024-03-02T06:42:47;98885.84;;;6.23;94.35
84760;BME280;74983;51.084;11.086;2024-03-02T06:45:12;98885.06;;;6.34;94.45
84760;BME280;74983;51.084;11.086;2024-03-02T06:47:37;98896.06;;;6.48;93.43
84760;BME280;74983;51.084;11.086;2024-03-02T06:50:03;98894.34;;;6.60;93.12
84760;BME280;74983;51.084;11.086;2024-03-02T06:52:28;98891.09;;;6.69;92.78
84760;BME280;74983;51.084;11.086;2024-03-02T06:54:53;98890.91;;;6.83;93.11
84760;BME280;74983;51.084;11.086;2024-03-02T06:57:18;98896.81;;;6.96;92.58
84760;BME280;74983;51.084;11.086;2024-03-02T06:59:45;98897.56;;;7.09;91.50
84760;BME280;74983;51.084;11.086;2024-03-02T07:02:10;98904.75;;;7.17;91.49
84760;BME280;74983;51.084;11.086;2024-03-02T07:04:36;98904.53;;;7.20;90.78
84760;BME280;74983;51.084;11.086;2024-03-02T07:07:01;98896.88;;;7.29;90.14
84760;BME280;74983;51.084;11.086;2024-03-02T07:09:27;98903.50;;;7.44;90.09
84760;BME280;74983;51.084;11.086;2024-03-02T07:11:52;98900.09;;;7.44;89.61
84760;BME280;74983;51.084;11.086;2024-03-02T07:14:18;98904.69;;;7.51;89.92
84760;BME280;74983;51.084;11.086;2024-03-02T07:16:43;98909.38;;;7.57;89.45
84760;BME280;74983;51.084;11.086;2024-03-02T07:19:09;98904.34;;;7.56;89.75
84760;BME280;74983;51.084;11.086;2024-03-02T07:21:34;98905.25;;;7.66;89.82
84760;BME280;74983;51.084;11.086;2024-03-02T07:23:59;98902.69;;;7.66;89.63
84760;BME280;74983;51.084;11.086;2024-03-02T07:26:27;98909.63;;;7.65;89.04
84760;BME280;74983;51.084;11.086;2024-03-02T07:28:53;98911.03;;;7.69;89.35
84760;BME280;74983;51.084;11.086;2024-03-02T07:31:18;98910.69;;;7.74;89.01
84760;BME280;74983;51.084;11.086;2024-03-02T07:33:44;98917.06;;;7.81;89.30
84760;BME280;74983;51.084;11.086;2024-03-02T07:36:10;98914.94;;;7.86;89.41
84760;BME280;74983;51.084;11.086;2024-03-02T07:38:36;98916.19;;;7.91;89.19
84760;BME280;74983;51.084;11.086;2024-03-02T07:41:01;98914.09;;;7.96;88.94
84760;BME280;74983;51.084;11.086;2024-03-02T07:43:26;98915.94;;;8.06;88.13
84760;BME280;74983;51.084;11.086;2024-03-02T07:45:52;98916.66;;;8.19;87.85
84760;BME280;74983;51.084;11.086;2024-03-02T07:48:17;98926.56;;;8.25;87.98
84760;BME280;74983;51.084;11.086;2024-03-02T07:50:43;98926.09;;;8.31;87.63
84760;BME280;74983;51.084;11.086;2024-03-02T07:53:08;98930.44;;;8.41;87.78
84760;BME280;74983;51.084;11.086;2024-03-02T07:55:34;98928.75;;;8.51;87.45
84760;BME280;74983;51.084;11.086;2024-03-02T07:58:02;98922.94;;;8.59;86.82
84760;BME280;74983;51.084;11.086;2024-03-02T08:00:27;98925.03;;;8.65;86.51
84760;BME280;74983;51.084;11.086;2024-03-02T08:02:53;98932.97;;;8.84;85.62
84760;BME280;74983;51.084;11.086;2024-03-02T08:05:19;98928.09;;;9.22;84.83
84760;BME280;74983;51.084;11.086;2024-03-02T08:07:46;98922.28;;;9.60;82.60
84760;BME280;74983;51.084;11.086;2024-03-02T08:10:12;98930.88;;;9.90;81.09
84760;BME280;74983;51.084;11.086;2024-03-02T08:12:37;98928.94;;;10.13;80.26
84760;BME280;74983;51.084;11.086;2024-03-02T08:15:02;98926.94;;;10.36;79.13
84760;BME280;74983;51.084;11.086;2024-03-02T08:17:29;98928.19;;;10.32;79.47
84760;BME280;74983;51.084;11.086;2024-03-02T08:19:54;98926.72;;;10.67;78.81
84760;BME280;74983;51.084;11.086;2024-03-02T08:22:19;98925.38;;;10.82;77.36
84760;BME280;74983;51.084;11.086;2024-03-02T08:24:45;98926.56;;;10.69;77.62
84760;BME280;74983;51.084;11.086;2024-03-02T08:27:11;98932.63;;;10.88;77.67
84760;BME280;74983;51.084;11.086;2024-03-02T08:29:37;98926.78;;;11.42;75.97
84760;BME280;74983;51.084;11.086;2024-03-02T08:32:02;98929.50;;;11.69;75.17
84760;BME280;74983;51.084;11.086;2024-03-02T08:34:27;98927.69;;;11.79;72.80
84760;BME280;74983;51.084;11.086;2024-03-02T08:36:53;98928.34;;;11.81;73.73
84760;BME280;74983;51.084;11.086;2024-03-02T08:39:18;98931.66;;;11.83;73.40
84760;BME280;74983;51.084;11.086;2024-03-02T08:41:45;98924.69;;;11.74;72.65
84760;BME280;74983;51.084;11.086;2024-03-02T08:44:11;98925.53;;;11.65;72.21
84760;BME280;74983;51.084;11.086;2024-03-02T08:46:37;98927.84;;;11.59;73.24
84760;BME280;74983;51.084;11.086;2024-03-02T08:49:03;98932.81;;;11.52;73.74
84760;BME280;74983;51.084;11.086;2024-03-02T08:51:28;98924.50;;;11.85;72.77
84760;BME280;74983;51.084;11.086;2024-03-02T08:53:53;98921.19;;;12.20;70.81
84760;BME280;74983;51.084;11.086;2024-03-02T08:56:18;98927.56;;;12.53;69.99
84760;BME280;74983;51.084;11.086;2024-03-02T08:58:45;98924.34;;;12.41;69.95
84760;BME280;74983;51.084;11.086;2024-03-02T09:01:11;98925.09;;;12.51;68.94
84760;BME280;74983;51.084;11.086;2024-03-02T09:03:36;98927.38;;;12.99;67.25
84760;BME280;74983;51.084;11.086;2024-03-02T09:06:02;98926.75;;;13.22;66.37
84760;BME280;74983;51.084;11.086;2024-03-02T09:08:28;98921.72;;;14.14;63.97
84760;BME280;74983;51.084;11.086;2024-03-02T09:10:53;98914.94;;;14.29;63.69
84760;BME280;74983;51.084;11.086;2024-03-02T09:13:18;98918.81;;;14.75;63.13
84760;BME280;74983;51.084;11.086;2024-03-02T09:15:44;98925.34;;;14.79;62.45
84760;BME280;74983;51.084;11.086;2024-03-02T09:18:09;98922.59;;;14.80;60.84
84760;BME280;74983;51.084;11.086;2024-03-02T09:20:35;98923.75;;;15.18;59.40
84760;BME280;74983;51.084;11.086;2024-03-02T09:23:00;98921.78;;;15.44;59.69
84760;BME280;74983;51.084;11.086;2024-03-02T09:25:26;98917.81;;;15.32;59.57
84760;BME280;74983;51.084;11.086;2024-03-02T09:27:51;98922.44;;;15.06;57.99
84760;BME280;74983;51.084;11.086;2024-03-02T09:30:16;98916.00;;;14.84;58.33
84760;BME280;74983;51.084;11.086;2024-03-02T09:32:42;98908.78;;;14.12;61.18
84760;BME280;74983;51.084;11.086;2024-03-02T09:35:07;98912.41;;;14.77;60.30
84760;BME280;74983;51.084;11.086;2024-03-02T09:37:32;98903.25;;;15.21;58.64
84760;BME280;74983;51.084;11.086;2024-03-02T09:39:58;98915.50;;;15.69;57.11
84760;BME280;74983;51.084;11.086;2024-03-02T09:42:24;98908.47;;;15.13;58.26
84760;BME280;74983;51.084;11.086;2024-03-02T09:44:49;98913.53;;;14.50;60.19
84760;BME280;74983;51.084;11.086;2024-03-02T09:47:15;98914.50;;;13.74;62.51
84760;BME280;74983;51.084;11.086;2024-03-02T09:49:40;98915.75;;;13.36;63.16
84760;BME280;74983;51.084;11.086;2024-03-02T09:52:06;98912.38;;;13.44;63.92
84760;BME280;74983;51.084;11.086;2024-03-02T09:54:32;98915.00;;;13.44;64.06
84760;BME280;74983;51.084;11.086;2024-03-02T09:56:57;98919.13;;;13.29;64.91
84760;BME280;74983;51.084;11.086;2024-03-02T09:59:22;98924.97;;;13.23;65.03
84760;BME280;74983;51.084;11.086;2024-03-02T10:01:58;98921.53;;;13.22;65.64
84760;BME280;74983;51.084;11.086;2024-03-02T10:04:28;98921.53;;;13.22;64.29
84760;BME280;74983;51.084;11.086;2024-03-02T10:07:17;98922.44;;;13.39;65.64
84760;BME280;74983;51.084;11.086;2024-03-02T10:09:44;98935.28;;;13.50;64.18
84760;BME280;74983;51.084;11.086;2024-03-02T10:12:10;98926.28;;;13.70;62.60
84760;BME280;74983;51.084;11.086;2024-03-02T10:14:39;98920.97;;;13.88;61.13
84760;BME280;74983;51.084;11.086;2024-03-02T10:17:12;98921.06;;;13.78;61.51
84760;BME280;74983;51.084;11.086;2024-03-02T10:19:39;98924.00;;;13.75;61.49
84760;BME280;74983;51.084;11.086;2024-03-02T10:22:06;98928.50;;;13.65;62.68
84760;BME280;74983;51.084;11.086;2024-03-02T10:24:42;98922.00;;;13.69;63.02
84760;BME280;74983;51.084;11.086;2024-03-02T10:27:31;98931.09;;;13.57;62.00
84760;BME280;74983;51.084;11.086;2024-03-02T10:29:56;98932.91;;;13.39;61.73
84760;BME280;74983;51.084;11.086;2024-03-02T10:32:22;98935.00;;;13.35;62.78
84760;BME280;74983;51.084;11.086;2024-03-02T10:34:47;98930.28;;;13.39;63.11
84760;BME280;74983;51.084;11.086;2024-03-02T10:37:14;98925.53;;;13.34;61.87
84760;BME280;74983;51.084;11.086;2024-03-02T10:39:40;98913.09;;;13.54;62.12
84760;BME280;74983;51.084;11.086;2024-03-02T10:42:07;98932.00;;;13.48;60.17
84760;BME280;74983;51.084;11.086;2024-03-02T10:44:32;98926.38;;;13.61;61.66
84760;BME280;74983;51.084;11.086;2024-03-02T10:47:03;98926.13;;;13.80;60.22
84760;BME280;74983;51.084;11.086;2024-03-02T10:49:30;98925.03;;;13.82;61.32
84760;BME280;74983;51.084;11.086;2024-03-02T10:51:58;98922.47;;;13.98;60.46
84760;BME280;74983;51.084;11.086;2024-03-02T10:54:23;98913.97;;;13.96;56.84
84760;BME280;74983;51.084;11.086;2024-03-02T10:56:52;98914.97;;;14.03;57.98
84760;BME280;74983;51.084;11.086;2024-03-02T10:59:35;98914.22;;;14.19;58.34
84760;BME280;74983;51.084;11.086;2024-03-02T11:02:02;98910.09;;;14.16;55.71
84760;BME280;74983;51.084;11.086;2024-03-02T11:04:28;98903.97;;;14.33;56.54
84760;BME280;74983;51.084;11.086;2024-03-02T11:06:59;98908.63;;;14.55;56.88
84760;BME280;74983;51.084;11.086;2024-03-02T11:09:27;98903.72;;;14.60;56.50
84760;BME280;74983;51.084;11.086;2024-03-02T11:12:03;98908.16;;;14.76;55.67
84760;BME280;74983;51.084;11.086;2024-03-02T11:14:31;98906.03;;;15.04;56.72
84760;BME280;74983;51.084;11.086;2024-03-02T11:17:01;98896.97;;;15.62;56.29
84760;BME280;74983;51.084;11.086;2024-03-02T11:19:29;98897.66;;;15.56;56.68
84760;BME280;74983;51.084;11.086;2024-03-02T11:21:55;98892.88;;;16.37;52.78
84760;BME280;74983;51.084;11.086;2024-03-02T11:26:46;98888.69;;;16.28;51.84
84760;BME280;74983;51.084;11.086;2024-03-02T11:32:03;98884.34;;;16.05;52.13
84760;BME280;74983;51.084;11.086;2024-03-02T11:34:33;98880.41;;;15.54;53.68
84760;BME280;74983;51.084;11.086;2024-03-02T11:37:01;98882.22;;;15.53;54.93
84760;BME280;74983;51.084;11.086;2024-03-02T11:39:27;98880.94;;;15.17;53.66
84760;BME280;74983;51.084;11.086;2024-03-02T11:41:52;98877.16;;;15.12;54.57
84760;BME280;74983;51.084;11.086;2024-03-02T11:44:18;98877.53;;;14.85;56.62
84760;BME280;74983;51.084;11.086;2024-03-02T11:46:52;98879.22;;;14.28;57.82
84760;BME280;74983;51.084;11.086;2024-03-02T11:49:39;98876.84;;;14.50;57.96
84760;BME280;74983;51.084;11.086;2024-03-02T11:52:06;98869.44;;;14.38;55.65
84760;BME280;74983;51.084;11.086;2024-03-02T11:54:35;98881.06;;;14.35;57.02
84760;BME280;74983;51.084;11.086;2024-03-02T11:57:02;98881.38;;;14.40;57.19
84760;BME280;74983;51.084;11.086;2024-03-02T11:59:28;98878.81;;;14.48;57.93
84760;BME280;74983;51.084;11.086;2024-03-02T12:01:54;98873.72;;;14.55;56.92
84760;BME280;74983;51.084;11.086;2024-03-02T12:04:21;98871.72;;;14.41;57.84
84760;BME280;74983;51.084;11.086;2024-03-02T12:06:46;98866.84;;;14.04;58.57
84760;BME280;74983;51.084;11.086;2024-03-02T12:09:13;98872.31;;;14.19;58.96
84760;BME280;74983;51.084;11.086;2024-03-02T12:11:40;98867.13;;;14.27;58.33
84760;BME280;74983;51.084;11.086;2024-03-02T12:14:11;98867.56;;;14.22;57.64
84760;BME280;74983;51.084;11.086;2024-03-02T12:16:37;98860.88;;;14.28;58.79
84760;BME280;74983;51.084;11.086;2024-03-02T12:19:04;98869.75;;;14.27;58.15
84760;BME280;74983;51.084;11.086;2024-03-02T12:21:30;98862.13;;;14.16;58.20
84760;BME280;74983;51.084;11.086;2024-03-02T12:23:55;98866.25;;;14.10;57.19
84760;BME280;74983;51.084;11.086;2024-03-02T12:26:21;98862.06;;;14.33;57.35
84760;BME280;74983;51.084;11.086;2024-03-02T12:28:47;98857.84;;;14.48;55.89
84760;BME280;74983;51.084;11.086;2024-03-02T12:31:13;98862.41;;;14.54;56.07
84760;BME280;74983;51.084;11.086;2024-03-02T12:33:39;98863.13;;;14.07;58.68
84760;BME280;74983;51.084;11.086;2024-03-02T12:36:09;98853.88;;;14.44;58.42
84760;BME280;74983;51.084;11.086;2024-03-02T12:38:34;98853.53;;;14.31;58.28
84760;BME280;74983;51.084;11.086;2024-03-02T12:40:59;98850.59;;;14.42;57.94
84760;BME280;74983;51.084;11.086;2024-03-02T12:43:30;98849.81;;;14.58;57.62
84760;BME280;74983;51.084;11.086;2024-03-02T12:45:55;98844.09;;;14.71;57.53
84760;BME280;74983;51.084;11.086;2024-03-02T12:48:21;98846.72;;;14.62;57.53
84760;BME280;74983;51.084;11.086;2024-03-02T12:50:46;98851.31;;;14.60;51.03
84760;BME280;74983;51.084;11.086;2024-03-02T12:53:14;98852.13;;;14.69;50.86
84760;BME280;74983;51.084;11.086;2024-03-02T12:55:40;98845.38;;;14.66;48.74
84760;BME280;74983;51.084;11.086;2024-03-02T12:58:06;98846.53;;;14.56;48.69
84760;BME280;74983;51.084;11.086;2024-03-02T13:00:31;98847.69;;;14.61;49.55
84760;BME280;74983;51.084;11.086;2024-03-02T13:03:00;98846.03;;;14.44;49.35